Observation data for Tatum on 11/07/2019      Previous  Date       Current Mesonet Observations  Soil Data  Daily Summary Page  Observations in Plain Language
KTAT 070600Z 12003KT 13/12 A3017 RMK A01 T01270115  RH  095%=      5-min Rain = 0
KTAT 070605Z 13006KT 13/11 A3017 RMK A01 T01270114  RH  095%=      5-min Rain = 0
KTAT 070610Z 15007KT 13/12 A3018 RMK A01 T01270115  RH  095%=      5-min Rain = 0
KTAT 070615Z 15006KT 13/11 A3019 RMK A01 T01270114  RH  095%=      5-min Rain = 0
KTAT 070620Z 14005KT 13/11 A3019 RMK A01 T01260114  RH  095%=      5-min Rain = 0
KTAT 070625Z 13006KT 13/11 A3019 RMK A01 T01260114  RH  095%=      5-min Rain = 0
KTAT 070630Z 13008KT 13/11 A3019 RMK A01 T01260114  RH  095%=      5-min Rain = 0
KTAT 070635Z 13009KT 13/11 A3019 RMK A01 T01260114  RH  095%=      5-min Rain = 0
KTAT 070640Z 13008KT 13/11 A3019 RMK A01 T01260113  RH  095%=      5-min Rain = 0
KTAT 070645Z 13005KT 13/11 A3019 RMK A01 T01260113  RH  095%=      5-min Rain = 0
KTAT 070650Z 11004KT 13/11 A3019 RMK A01 T01260113  RH  096%=      5-min Rain = 0
KTAT 070655Z 10004KT 13/11 A3019 RMK A01 T01260114  RH  096%=      5-min Rain = 0
KTAT 070700Z 11003KT 13/11 A3019 RMK A01 T01260114  RH  096%=      5-min Rain = 0
KTAT 070705Z 12004KT 13/11 A3019 RMK A01 T01260114  RH  096%=      5-min Rain = 0
KTAT 070710Z 12003KT 13/11 A3019 RMK A01 T01260114  RH  096%=      5-min Rain = 0
KTAT 070715Z 08002KT 13/11 A3019 RMK A01 T01260114  RH  096%=      5-min Rain = 0
KTAT 070720Z 36002KT 13/11 A3019 RMK A01 T01260114  RH  096%=      5-min Rain = 0
KTAT 070725Z 30004KT 13/11 A3021 RMK A01 T01270114  RH  096%=      5-min Rain = 0
KTAT 070730Z 28004KT 13/12 A3022 RMK A01 T01270115  RH  096%=      5-min Rain = 0
KTAT 070735Z 34003KT 13/12 A3021 RMK A01 T01270115  RH  096%=      5-min Rain = 0.01
KTAT 070740Z 33002KT 13/12 A3022 RMK A01 T01270115  RH  096%=      5-min Rain = 0.02
KTAT 070745Z 29000KT 13/12 A3022 RMK A01 T01270115  RH  096%=      5-min Rain = 0
KTAT 070750Z 33003KT 13/12 A3023 RMK A01 T01270115  RH  096%=      5-min Rain = 0
KTAT 070755Z 32005KT 13/12 A3023 RMK A01 T01270115  RH  096%=      5-min Rain = 0
KTAT 070800Z 34004KT 13/12 A3022 RMK A01 T01260115  RH  096%=      5-min Rain = 0
KTAT 070805Z 35006KT 13/12 A3021 RMK A01 T01260115  RH  096%=      5-min Rain = 0.01
KTAT 070810Z 34006KT 13/12 A3021 RMK A01 T01260115  RH  096%=      5-min Rain = 0
KTAT 070815Z 33006KT 13/12 A3022 RMK A01 T01260115  RH  096%=      5-min Rain = 0
KTAT 070820Z 34005KT 13/11 A3021 RMK A01 T01260114  RH  096%=      5-min Rain = 0
KTAT 070825Z 34005KT 13/11 A3021 RMK A01 T01260114  RH  096%=      5-min Rain = 0
KTAT 070830Z 34006KT 13/11 A3021 RMK A01 T01260114  RH  096%=      5-min Rain = 0
KTAT 070835Z 34007KT 13/11 A3021 RMK A01 T01260114  RH  096%=      5-min Rain = 0
KTAT 070840Z 01020KT 10/09 A3022 RMK A01 T00980086  RH  095%=      5-min Rain = 0.02
KTAT 070845Z 01019G24KT 08/07 A3023 RMK A01 T00800068  RH  094%=      5-min Rain = 0
KTAT 070850Z 01018KT 07/06 A3023 RMK A01 T00710059  RH  095%=      5-min Rain = 0
KTAT 070855Z 01018G25KT 07/06 A3023 RMK A01 T00660055  RH  095%=      5-min Rain = 0
KTAT 070900Z 01019G24KT 06/05 A3023 RMK A01 T00620052  RH  095%=      5-min Rain = 0
KTAT 070905Z 02019G25KT 06/05 A3023 RMK A01 T00590048  RH  095%=      5-min Rain = 0
KTAT 070910Z 02017G22KT 06/05 A3023 RMK A01 T00580047  RH  095%=      5-min Rain = 0
KTAT 070915Z 02018G24KT 06/05 A3023 RMK A01 T00570047  RH  095%=      5-min Rain = 0
KTAT 070920Z 02022G27KT 05/04 A3023 RMK A01 T00510040  RH  094%=      5-min Rain = 0
KTAT 070925Z 01021G28KT 05/03 A3023 RMK A01 T00450033  RH  094%=      5-min Rain = 0
KTAT 070930Z 01021G27KT 04/03 A3023 RMK A01 T00420030  RH  094%=      5-min Rain = 0
KTAT 070935Z 02024KT 04/03 A3023 RMK A01 T00390027  RH  093%=      5-min Rain = 0
KTAT 070940Z 02021G26KT 04/03 A3022 RMK A01 T00380026  RH  093%=      5-min Rain = 0
KTAT 070945Z 02023KT 04/02 A3022 RMK A01 T00350023  RH  093%=      5-min Rain = 0
KTAT 070950Z 02021G27KT 03/02 A3022 RMK A01 T00340022  RH  093%=      5-min Rain = 0
KTAT 070955Z 02025G33KT 03/02 A3023 RMK A01 T00300018  RH  093%=      5-min Rain = 0
KTAT 071000Z 02023G28KT 03/02 A3023 RMK A01 T00290017  RH  093%=      5-min Rain = 0
KTAT 071005Z 01023G28KT 03/02 A3024 RMK A01 T00290016  RH  093%=      5-min Rain = 0
KTAT 071010Z 01022G29KT 03/02 A3026 RMK A01 T00280016  RH  093%=      5-min Rain = 0
KTAT 071015Z 01023G29KT 03/01 A3027 RMK A01 T00270014  RH  093%=      5-min Rain = 0.01
KTAT 071020Z 01023G28KT 03/01 A3026 RMK A01 T00250013  RH  093%=      5-min Rain = 0
KTAT 071025Z 01023G29KT 02/01 A3026 RMK A01 T00230011  RH  093%=      5-min Rain = 0.01
KTAT 071030Z 02026G33KT 02/01 A3026 RMK A01 T00200009  RH  093%=      5-min Rain = 0
KTAT 071035Z 02026G33KT 02/01 A3026 RMK A01 T00200008  RH  093%=      5-min Rain = 0
KTAT 071040Z 02024G29KT 02/01 A3026 RMK A01 T00200009  RH  094%=      5-min Rain = 0
KTAT 071045Z 01021G29KT 02/01 A3027 RMK A01 T00190009  RH  094%=      5-min Rain = 0
KTAT 071050Z 02024G31KT 02/01 A3026 RMK A01 T00180007  RH  094%=      5-min Rain = 0
KTAT 071055Z 02024G31KT 02/01 A3026 RMK A01 T00160005  RH  094%=      5-min Rain = 0
KTAT 071100Z 02025KT 02/01 A3026 RMK A01 T00150005  RH  094%=      5-min Rain = 0
KTAT 071105Z 02023G30KT 02/00 A3026 RMK A01 T00150004  RH  094%=      5-min Rain = 0
KTAT 071110Z 02022G29KT 02/01 A3027 RMK A01 T00150005  RH  094%=      5-min Rain = 0
KTAT 071115Z 02021G28KT 02/01 A3027 RMK A01 T00150005  RH  094%=      5-min Rain = 0
KTAT 071120Z 01022G27KT 01/00 A3027 RMK A01 T00130003  RH  094%=      5-min Rain = 0
KTAT 071125Z 02024G31KT 01/00 A3028 RMK A01 T00110002  RH  094%=      5-min Rain = 0
KTAT 071130Z 02025G31KT 01/00 A3028 RMK A01 T00100000  RH  094%=      5-min Rain = 0
KTAT 071135Z 01022G31KT 01/00 A3029 RMK A01 T00090000  RH  095%=      5-min Rain = 0
KTAT 071140Z 02024G29KT 01/M00 A3029 RMK A01 T00081001  RH  095%=      5-min Rain = 0
KTAT 071145Z 01023G28KT 01/M00 A3029 RMK A01 T00071002  RH  095%=      5-min Rain = 0
KTAT 071150Z 02022G31KT 01/M00 A303 RMK A01 T00071001  RH  095%=      5-min Rain = 0
KTAT 071155Z 02023G30KT 01/M00 A303 RMK A01 T00061002  RH  096%=      5-min Rain = 0
KTAT 071200Z 01024G32KT 01/M00 A303 RMK A01 T00061002  RH  096%=      5-min Rain = 0
KTAT 071205Z 02025G31KT 01/M00 A303 RMK A01 T00051003  RH  096%=      5-min Rain = 0
KTAT 071210Z 01024G31KT 01/M00 A303 RMK A01 T00051003  RH  096%=      5-min Rain = 0
KTAT 071215Z 02024G30KT 01/M00 A3031 RMK A01 T00051003  RH  096%=      5-min Rain = 0
KTAT 071220Z 02023G30KT 00/M00 A3032 RMK A01 T00041003  RH  096%=      5-min Rain = 0
KTAT 071225Z 02023G28KT 00/M00 A3033 RMK A01 T00041004  RH  095%=      5-min Rain = 0
KTAT 071230Z 02020KT 00/M00 A3033 RMK A01 T00041004  RH  095%=      5-min Rain = 0
KTAT 071235Z 02023KT 00/M00 A3033 RMK A01 T00041004  RH  095%=      5-min Rain = 0
KTAT 071240Z 02022G29KT 00/M01 A3033 RMK A01 T00041005  RH  095%=      5-min Rain = 0
KTAT 071245Z 02023G29KT 00/M01 A3033 RMK A01 T00031005  RH  095%=      5-min Rain = 0
KTAT 071250Z 02023G28KT 00/M01 A3034 RMK A01 T00031006  RH  095%=      5-min Rain = 0
KTAT 071255Z 02023G28KT 00/M01 A3035 RMK A01 T00021007  RH  095%=      5-min Rain = 0
KTAT 071300Z 02022G27KT 00/M01 A3035 RMK A01 T00011008  RH  095%=      5-min Rain = 0
KTAT 071305Z 02023G29KT 00/M01 A3035 RMK A01 T00011007  RH  095%=      5-min Rain = 0
KTAT 071310Z 02024G30KT 00/M01 A3034 RMK A01 T00011008  RH  095%=      5-min Rain = 0
KTAT 071315Z 03021G28KT 00/M01 A3035 RMK A01 T00011007  RH  095%=      5-min Rain = 0
KTAT 071320Z 02022G28KT 00/M01 A3035 RMK A01 T00011008  RH  095%=      5-min Rain = 0
KTAT 071325Z 02021G26KT 00/M01 A3035 RMK A01 T00011008  RH  095%=      5-min Rain = 0
KTAT 071330Z 02019G27KT 00/M01 A3036 RMK A01 T00011007  RH  095%=      5-min Rain = 0
KTAT 071335Z 02021G27KT 00/M01 A3036 RMK A01 T00011007  RH  095%=      5-min Rain = 0
KTAT 071340Z 02021G26KT 00/01 A3036 RMK A01 T000000-8  RH  095%=      5-min Rain = 0
KTAT 071345Z 01020G25KT M00/M01 A3036 RMK A01 T10011009  RH  095%=      5-min Rain = 0
KTAT 071350Z 02020G25KT M00/M01 A3036 RMK A01 T10021010  RH  095%=      5-min Rain = 0
KTAT 071355Z 02020G26KT M00/M01 A3036 RMK A01 T10021009  RH  095%=      5-min Rain = 0.01
KTAT 071400Z 02019G24KT M00/M01 A3037 RMK A01 T10021009  RH  096%=      5-min Rain = 0
KTAT 071405Z 01020G27KT M00/M01 A3038 RMK A01 T10011009  RH  096%=      5-min Rain = 0
KTAT 071410Z 01019G25KT M00/M01 A3039 RMK A01 T10011009  RH  096%=      5-min Rain = 0
KTAT 071415Z 00017G24KT M00/M01 A3041 RMK A01 T10011009  RH  095%=      5-min Rain = 0
KTAT 071420Z 01020G25KT M00/M01 A304 RMK A01 T10011009  RH  095%=      5-min Rain = 0
KTAT 071425Z 02018G23KT M00/M01 A3039 RMK A01 T10011010  RH  094%=      5-min Rain = 0
KTAT 071430Z 02019G25KT 00/01 A3039 RMK A01 T00-00-10  RH  094%=      5-min Rain = 0.01
KTAT 071435Z 02017KT 00/01 A3039 RMK A01 T00-000-9  RH  094%=      5-min Rain = 0
KTAT 071440Z 02019G24KT M00/M01 A3039 RMK A01 T10011011  RH  094%=      5-min Rain = 0.01
KTAT 071445Z 02019G24KT M00/M01 A3039 RMK A01 T10011010  RH  094%=      5-min Rain = 0
KTAT 071450Z 02018KT M00/M01 A304 RMK A01 T10011011  RH  094%=      5-min Rain = 0
KTAT 071455Z 03017G23KT 00/01 A304 RMK A01 T00-00-10  RH  094%=      5-min Rain = 0
KTAT 071500Z 02017G23KT 00/01 A304 RMK A01 T00000-10  RH  094%=      5-min Rain = 0
KTAT 071505Z 02017KT 00/M01 A304 RMK A01 T00011009  RH  094%=      5-min Rain = 0
KTAT 071510Z 02017G22KT 00/M01 A304 RMK A01 T00011010  RH  094%=      5-min Rain = 0
KTAT 071515Z 02017KT 00/M01 A3041 RMK A01 T00011009  RH  094%=      5-min Rain = 0
KTAT 071520Z 02017G23KT 00/M01 A3041 RMK A01 T00011009  RH  094%=      5-min Rain = 0
KTAT 071525Z 03020KT 00/M01 A3041 RMK A01 T00021010  RH  093%=      5-min Rain = 0
KTAT 071530Z 03017G22KT 00/M01 A3042 RMK A01 T00031009  RH  093%=      5-min Rain = 0
KTAT 071535Z 03018G23KT 00/M01 A3042 RMK A01 T00031010  RH  092%=      5-min Rain = 0
KTAT 071540Z 03018G23KT 00/M01 A3043 RMK A01 T00021011  RH  092%=      5-min Rain = 0
KTAT 071545Z 03018G23KT 00/M01 A3043 RMK A01 T00021011  RH  092%=      5-min Rain = 0
KTAT 071550Z 03017G22KT 00/M01 A3043 RMK A01 T00011011  RH  092%=      5-min Rain = 0
KTAT 071555Z 03017G22KT 00/M01 A3043 RMK A01 T00021011  RH  092%=      5-min Rain = 0
KTAT 071600Z 03017KT 00/M01 A3043 RMK A01 T00011011  RH  092%=      5-min Rain = 0
KTAT 071605Z 02017G22KT 00/01 A3043 RMK A01 T00-00-12  RH  093%=      5-min Rain = 0
KTAT 071610Z 02014KT 00/01 A3043 RMK A01 T00000-11  RH  093%=      5-min Rain = 0
KTAT 071615Z 02015G20KT 00/01 A3043 RMK A01 T00000-11  RH  093%=      5-min Rain = 0
KTAT 071620Z 03014KT 00/01 A3043 RMK A01 T00-00-11  RH  094%=      5-min Rain = 0
KTAT 071625Z 03014G20KT 00/01 A3043 RMK A01 T00000-10  RH  094%=      5-min Rain = 0
KTAT 071630Z 03017KT M00/M01 A3043 RMK A01 T10011011  RH  094%=      5-min Rain = 0
KTAT 071635Z 03017G22KT M00/M01 A3044 RMK A01 T10011011  RH  094%=      5-min Rain = 0
KTAT 071640Z 02016G21KT M00/M01 A3044 RMK A01 T10011011  RH  094%=      5-min Rain = 0
KTAT 071645Z 02016G22KT M00/M01 A3044 RMK A01 T10011011  RH  094%=      5-min Rain = 0
KTAT 071650Z 01014KT M00/M01 A3046 RMK A01 T10011011  RH  094%=      5-min Rain = 0
KTAT 071655Z 01011KT M00/M01 A3048 RMK A01 T10011011  RH  094%=      5-min Rain = 0
KTAT 071700Z 02012G18KT 00/01 A3047 RMK A01 T00000-10  RH  094%=      5-min Rain = 0
KTAT 071705Z 02014KT 00/M01 A3046 RMK A01 T00011009  RH  094%=      5-min Rain = 0
KTAT 071710Z 02015KT 00/M01 A3046 RMK A01 T00011008  RH  094%=      5-min Rain = 0.01
KTAT 071715Z 02014KT 00/M01 A3046 RMK A01 T00021008  RH  094%=      5-min Rain = 0.01
KTAT 071720Z 02015KT 00/M01 A3045 RMK A01 T00031007  RH  094%=      5-min Rain = 0
KTAT 071725Z 02015G20KT 00/M01 A3045 RMK A01 T00041005  RH  095%=      5-min Rain = 0
KTAT 071730Z 02015KT 01/M00 A3045 RMK A01 T00061003  RH  095%=      5-min Rain = 0
KTAT 071735Z 01016KT 01/M00 A3045 RMK A01 T00081001  RH  095%=      5-min Rain = 0
KTAT 071740Z 01016KT 00/M01 A3045 RMK A01 T00041005  RH  094%=      5-min Rain = 0
KTAT 071745Z 02014G19KT 01/M00 A3045 RMK A01 T00071002  RH  095%=      5-min Rain = 0
KTAT 071750Z 02015G20KT 00/M01 A3045 RMK A01 T00041005  RH  095%=      5-min Rain = 0
KTAT 071755Z 02015KT 00/M01 A3045 RMK A01 T00041005  RH  095%=      5-min Rain = 0
KTAT 071800Z 02015KT 00/M01 A3044 RMK A01 T00031005  RH  095%=      5-min Rain = 0
KTAT 071805Z 03015KT 00/M01 A3045 RMK A01 T00031005  RH  095%=      5-min Rain = 0
KTAT 071810Z 03014KT 00/M01 A3045 RMK A01 T00031005  RH  095%=      5-min Rain = 0
KTAT 071815Z 03014KT 00/M01 A3045 RMK A01 T00031005  RH  095%=      5-min Rain = 0
KTAT 071820Z 02013KT 00/M01 A3045 RMK A01 T00031005  RH  095%=      5-min Rain = 0
KTAT 071825Z 01016KT 00/M01 A3044 RMK A01 T00021006  RH  095%=      5-min Rain = 0
KTAT 071830Z 01015KT 00/M01 A3044 RMK A01 T00031005  RH  096%=      5-min Rain = 0
KTAT 071835Z 02014KT 00/M00 A3044 RMK A01 T00041004  RH  096%=      5-min Rain = 0
KTAT 071840Z 02013KT 01/M00 A3044 RMK A01 T00051003  RH  096%=      5-min Rain = 0
KTAT 071845Z 01012KT 00/M00 A3045 RMK A01 T00041004  RH  096%=      5-min Rain = 0
KTAT 071850Z 01013KT 01/M00 A3044 RMK A01 T00051003  RH  096%=      5-min Rain = 0
KTAT 071855Z 01015KT 01/M00 A3043 RMK A01 T00051003  RH  095%=      5-min Rain = 0
KTAT 071900Z 01012KT 01/M00 A3043 RMK A01 T00051003  RH  095%=      5-min Rain = 0
KTAT 071905Z 00014KT 01/M00 A3043 RMK A01 T00061002  RH  095%=      5-min Rain = 0
KTAT 071910Z 01014KT 01/M00 A3043 RMK A01 T00061003  RH  095%=      5-min Rain = 0
KTAT 071915Z 01013KT 00/M01 A3043 RMK A01 T00041006  RH  094%=      5-min Rain = 0
KTAT 071920Z 02011KT 00/M01 A3043 RMK A01 T00041005  RH  095%=      5-min Rain = 0
KTAT 071925Z 00012KT 01/M01 A3043 RMK A01 T00051005  RH  095%=      5-min Rain = 0
KTAT 071930Z 36014KT 00/M01 A3043 RMK A01 T00031005  RH  095%=      5-min Rain = 0
KTAT 071935Z 00013KT 00/M01 A3042 RMK A01 T00031006  RH  095%=      5-min Rain = 0
KTAT 071940Z 01014G20KT 00/M01 A3042 RMK A01 T00031005  RH  095%=      5-min Rain = 0
KTAT 071945Z 02015G20KT 00/M01 A3041 RMK A01 T00021006  RH  095%=      5-min Rain = 0
KTAT 071950Z 02012KT 00/M01 A3042 RMK A01 T00031005  RH  095%=      5-min Rain = 0.01
KTAT 071955Z 00012KT 01/M00 A3042 RMK A01 T00051003  RH  096%=      5-min Rain = 0.01
KTAT 072000Z 36013KT 01/M00 A3041 RMK A01 T00051003  RH  095%=      5-min Rain = 0.01
KTAT 072005Z 36013KT 01/M00 A3041 RMK A01 T00061002  RH  095%=      5-min Rain = 0.01
KTAT 072010Z 00012KT 01/M00 A3042 RMK A01 T00061002  RH  095%=      5-min Rain = 0
KTAT 072015Z 01012KT 01/M00 A3041 RMK A01 T00061002  RH  095%=      5-min Rain = 0
KTAT 072020Z 00012KT 01/M00 A3042 RMK A01 T00071002  RH  095%=      5-min Rain = 0
KTAT 072025Z 01012KT 01/M00 A3042 RMK A01 T00051004  RH  095%=      5-min Rain = 0
KTAT 072030Z 01013KT 01/M00 A3041 RMK A01 T00051003  RH  095%=      5-min Rain = 0
KTAT 072035Z 00011KT 01/M00 A3041 RMK A01 T00061002  RH  095%=      5-min Rain = 0
KTAT 072040Z 00012KT 01/M00 A3041 RMK A01 T00071002  RH  095%=      5-min Rain = 0
KTAT 072045Z 36012KT 01/M00 A3041 RMK A01 T00061003  RH  095%=      5-min Rain = 0
KTAT 072050Z 35010KT 01/M00 A3042 RMK A01 T00081001  RH  095%=      5-min Rain = 0
KTAT 072055Z 36012KT 01/M00 A3041 RMK A01 T00071002  RH  095%=      5-min Rain = 0
KTAT 072100Z 00014KT 01/M01 A3041 RMK A01 T00051005  RH  094%=      5-min Rain = 0
KTAT 072105Z 01013KT 01/M00 A3041 RMK A01 T00061004  RH  094%=      5-min Rain = 0
KTAT 072110Z 36013KT 01/M00 A3041 RMK A01 T00071004  RH  094%=      5-min Rain = 0
KTAT 072115Z 01011KT 01/M00 A3042 RMK A01 T00071004  RH  093%=      5-min Rain = 0
KTAT 072120Z 01011KT 01/M00 A3042 RMK A01 T00081003  RH  094%=      5-min Rain = 0
KTAT 072125Z 01012KT 01/M00 A3042 RMK A01 T00071004  RH  094%=      5-min Rain = 0
KTAT 072130Z 01012KT 01/M00 A3042 RMK A01 T00061004  RH  094%=      5-min Rain = 0
KTAT 072135Z 00012KT 01/M00 A3042 RMK A01 T00061004  RH  094%=      5-min Rain = 0
KTAT 072140Z 01014KT 01/M00 A3041 RMK A01 T00061003  RH  095%=      5-min Rain = 0
KTAT 072145Z 01013KT 01/M00 A3041 RMK A01 T00051004  RH  095%=      5-min Rain = 0
KTAT 072150Z 01014KT 00/M01 A3041 RMK A01 T00041005  RH  095%=      5-min Rain = 0.01
KTAT 072155Z 01013KT 00/M01 A3041 RMK A01 T00041005  RH  095%=      5-min Rain = 0
KTAT 072200Z 01013KT 01/M00 A3041 RMK A01 T00051004  RH  095%=      5-min Rain = 0
KTAT 072205Z 01012KT 01/M00 A3041 RMK A01 T00061003  RH  095%=      5-min Rain = 0
KTAT 072210Z 00012KT 01/M00 A3041 RMK A01 T00061004  RH  094%=      5-min Rain = 0
KTAT 072215Z 00013KT 01/M00 A3042 RMK A01 T00061004  RH  094%=      5-min Rain = 0
KTAT 072220Z 01012KT 01/M00 A3041 RMK A01 T00051004  RH  094%=      5-min Rain = 0
KTAT 072225Z 01013KT 01/M00 A3041 RMK A01 T00051004  RH  094%=      5-min Rain = 0
KTAT 072230Z 01012KT 01/M00 A3042 RMK A01 T00051004  RH  094%=      5-min Rain = 0
KTAT 072235Z 01012KT 01/M01 A3042 RMK A01 T00061005  RH  094%=      5-min Rain = 0
KTAT 072240Z 01010KT 01/M00 A3042 RMK A01 T00071003  RH  094%=      5-min Rain = 0
KTAT 072245Z 01010G15KT 01/M00 A3042 RMK A01 T00071003  RH  094%=      5-min Rain = 0
KTAT 072250Z 01010KT 01/M00 A3042 RMK A01 T00071003  RH  094%=      5-min Rain = 0
KTAT 072255Z 01011KT 01/M00 A3042 RMK A01 T00061004  RH  094%=      5-min Rain = 0
KTAT 072300Z 01011KT 01/M00 A3042 RMK A01 T00061004  RH  094%=      5-min Rain = 0
KTAT 072305Z 01008KT 01/M00 A3042 RMK A01 T00061004  RH  094%=      5-min Rain = 0
KTAT 072310Z 02009KT 01/M00 A3042 RMK A01 T00071004  RH  094%=      5-min Rain = 0
KTAT 072315Z 00008KT 01/M00 A3043 RMK A01 T00071003  RH  094%=      5-min Rain = 0.01
KTAT 072320Z 01009KT 01/M00 A3043 RMK A01 T00071003  RH  094%=      5-min Rain = 0
KTAT 072325Z 01009KT 01/M00 A3043 RMK A01 T00081002  RH  094%=      5-min Rain = 0
KTAT 072330Z 02011KT 01/M00 A3043 RMK A01 T00071002  RH  094%=      5-min Rain = 0
KTAT 072335Z 01012KT 01/M00 A3043 RMK A01 T00061003  RH  094%=      5-min Rain = 0
KTAT 072340Z 01010KT 01/M00 A3043 RMK A01 T00061004  RH  095%=      5-min Rain = 0
KTAT 072345Z 00010KT 01/M00 A3043 RMK A01 T00051004  RH  095%=      5-min Rain = 0
KTAT 072350Z 01010KT 01/M00 A3043 RMK A01 T00051004  RH  095%=      5-min Rain = 0
KTAT 072355Z 01010KT 01/M00 A3043 RMK A01 T00051004  RH  094%=      5-min Rain = 0
KTAT 080000Z 01010KT 01/M01 A3043 RMK A01 T00051005  RH  094%=      5-min Rain = 0
KTAT 080005Z 01011KT 01/M01 A3043 RMK A01 T00051005  RH  094%=      5-min Rain = 0
KTAT 080010Z 01010KT 01/M01 A3043 RMK A01 T00051006  RH  094%=      5-min Rain = 0
KTAT 080015Z 01009KT 01/M01 A3043 RMK A01 T00051006  RH  094%=      5-min Rain = 0
KTAT 080020Z 00011KT 00/M01 A3043 RMK A01 T00041006  RH  094%=      5-min Rain = 0
KTAT 080025Z 01010KT 01/M01 A3043 RMK A01 T00051006  RH  094%=      5-min Rain = 0
KTAT 080030Z 01010KT 01/M01 A3043 RMK A01 T00051006  RH  094%=      5-min Rain = 0
KTAT 080035Z 02010KT 01/M01 A3043 RMK A01 T00051006  RH  094%=      5-min Rain = 0
KTAT 080040Z 01009KT 01/M01 A3043 RMK A01 T00051005  RH  094%=      5-min Rain = 0
KTAT 080045Z 01010KT 01/M01 A3043 RMK A01 T00051005  RH  094%=      5-min Rain = 0
KTAT 080050Z 01009KT 01/M01 A3043 RMK A01 T00061005  RH  094%=      5-min Rain = 0
KTAT 080055Z 01011KT 01/M01 A3043 RMK A01 T00061005  RH  094%=      5-min Rain = 0
KTAT 080100Z 01009KT 01/M00 A3043 RMK A01 T00061004  RH  094%=      5-min Rain = 0
KTAT 080105Z 01011KT 01/M00 A3043 RMK A01 T00061004  RH  094%=      5-min Rain = 0
KTAT 080110Z 00009KT 01/M01 A3043 RMK A01 T00051005  RH  094%=      5-min Rain = 0
KTAT 080115Z 02010KT 01/M01 A3043 RMK A01 T00051005  RH  094%=      5-min Rain = 0
KTAT 080120Z 02009KT 01/M01 A3043 RMK A01 T00051005  RH  094%=      5-min Rain = 0
KTAT 080125Z 02009KT 01/M01 A3043 RMK A01 T00051005  RH  094%=      5-min Rain = 0
KTAT 080130Z 02009KT 01/M00 A3043 RMK A01 T00051004  RH  095%=      5-min Rain = 0
KTAT 080135Z 01009KT 01/M00 A3043 RMK A01 T00051004  RH  095%=      5-min Rain = 0
KTAT 080140Z 01008KT 01/M00 A3043 RMK A01 T00051003  RH  095%=      5-min Rain = 0
KTAT 080145Z 01007KT 01/M00 A3043 RMK A01 T00061002  RH  095%=      5-min Rain = 0
KTAT 080150Z 01008KT 01/M00 A3044 RMK A01 T00051003  RH  095%=      5-min Rain = 0
KTAT 080155Z 00009KT 01/M00 A3044 RMK A01 T00051004  RH  095%=      5-min Rain = 0
KTAT 080200Z 01007KT 01/M00 A3044 RMK A01 T00051003  RH  095%=      5-min Rain = 0
KTAT 080205Z 01009KT 01/M00 A3044 RMK A01 T00061003  RH  095%=      5-min Rain = 0
KTAT 080210Z 01009KT 01/M00 A3044 RMK A01 T00061003  RH  095%=      5-min Rain = 0
KTAT 080215Z 01008KT 01/M00 A3044 RMK A01 T00061003  RH  095%=      5-min Rain = 0
KTAT 080220Z 01007KT 01/M00 A3044 RMK A01 T00061002  RH  095%=      5-min Rain = 0
KTAT 080225Z 00007KT 01/M00 A3044 RMK A01 T00071002  RH  095%=      5-min Rain = 0
KTAT 080230Z 36007KT 01/M00 A3044 RMK A01 T00061003  RH  095%=      5-min Rain = 0
KTAT 080235Z 01007KT 01/M00 A3044 RMK A01 T00071002  RH  095%=      5-min Rain = 0
KTAT 080240Z 02007KT 01/M00 A3044 RMK A01 T00071001  RH  095%=      5-min Rain = 0
KTAT 080245Z 03006KT 01/M00 A3044 RMK A01 T00071001  RH  095%=      5-min Rain = 0
KTAT 080250Z 04006KT 01/M00 A3044 RMK A01 T00071001  RH  095%=      5-min Rain = 0
KTAT 080255Z 03006KT 01/M00 A3045 RMK A01 T00081001  RH  095%=      5-min Rain = 0
KTAT 080300Z 03007KT 01/M00 A3045 RMK A01 T00081001  RH  095%=      5-min Rain = 0
KTAT 080305Z 02006KT 01/M00 A3045 RMK A01 T00081001  RH  095%=      5-min Rain = 0
KTAT 080310Z 03005KT 01/M00 A3045 RMK A01 T00081001  RH  095%=      5-min Rain = 0
KTAT 080315Z 04006KT 01/00 A3046 RMK A01 T000900-0  RH  095%=      5-min Rain = 0
KTAT 080320Z 06006KT 01/M00 A3045 RMK A01 T00081001  RH  095%=      5-min Rain = 0
KTAT 080325Z 05006KT 01/M00 A3045 RMK A01 T00081001  RH  095%=      5-min Rain = 0
KTAT 080330Z 04005KT 01/M00 A3045 RMK A01 T00081001  RH  095%=      5-min Rain = 0
KTAT 080335Z 04005KT 01/00 A3045 RMK A01 T000800-0  RH  095%=      5-min Rain = 0
KTAT 080340Z 05004KT 01/M00 A3045 RMK A01 T00081001  RH  095%=      5-min Rain = 0
KTAT 080345Z 04005KT 01/00 A3045 RMK A01 T00090000  RH  095%=      5-min Rain = 0
KTAT 080350Z 04006KT 01/00 A3045 RMK A01 T000900-0  RH  095%=      5-min Rain = 0
KTAT 080355Z 03006KT 01/00 A3045 RMK A01 T000800-0  RH  095%=      5-min Rain = 0
KTAT 080400Z 03006KT 01/00 A3045 RMK A01 T000800-0  RH  095%=      5-min Rain = 0
KTAT 080405Z 03006KT 01/00 A3045 RMK A01 T000800-0  RH  095%=      5-min Rain = 0
KTAT 080410Z 04006KT 01/00 A3045 RMK A01 T000800-0  RH  095%=      5-min Rain = 0
KTAT 080415Z 04006KT 01/00 A3045 RMK A01 T00080000  RH  095%=      5-min Rain = 0
KTAT 080420Z 04005KT 01/00 A3045 RMK A01 T000800-0  RH  096%=      5-min Rain = 0
KTAT 080425Z 03006KT 01/00 A3045 RMK A01 T00080000  RH  096%=      5-min Rain = 0
KTAT 080430Z 03005KT 01/00 A3045 RMK A01 T00080000  RH  096%=      5-min Rain = 0
KTAT 080435Z 03006KT 01/00 A3045 RMK A01 T00080001  RH  096%=      5-min Rain = 0
KTAT 080440Z 04006KT 01/00 A3045 RMK A01 T00080001  RH  096%=      5-min Rain = 0
KTAT 080445Z 05006KT 01/00 A3046 RMK A01 T00080000  RH  096%=      5-min Rain = 0
KTAT 080450Z 05005KT 01/00 A3045 RMK A01 T00080001  RH  096%=      5-min Rain = 0
KTAT 080455Z 04006KT 01/00 A3045 RMK A01 T00080001  RH  096%=      5-min Rain = 0
KTAT 080500Z 04005KT 01/00 A3045 RMK A01 T00080001  RH  096%=      5-min Rain = 0
KTAT 080505Z 04006KT 01/00 A3045 RMK A01 T00080001  RH  096%=      5-min Rain = 0
KTAT 080510Z 03005KT 01/00 A3045 RMK A01 T00080001  RH  096%=      5-min Rain = 0
KTAT 080515Z 03006KT 01/00 A3045 RMK A01 T00080001  RH  096%=      5-min Rain = 0
KTAT 080520Z 03006KT 01/00 A3045 RMK A01 T00080001  RH  096%=      5-min Rain = 0
KTAT 080525Z 03006KT 01/00 A3045 RMK A01 T00080001  RH  096%=      5-min Rain = 0
KTAT 080530Z 02005KT 01/00 A3045 RMK A01 T00080001  RH  096%=      5-min Rain = 0
KTAT 080535Z 02005KT 01/00 A3045 RMK A01 T00080001  RH  096%=      5-min Rain = 0
KTAT 080540Z 02005KT 01/00 A3045 RMK A01 T00070001  RH  097%=      5-min Rain = 0
KTAT 080545Z 01006KT 01/00 A3045 RMK A01 T00070001  RH  097%=      5-min Rain = 0
KTAT 080550Z 01006KT 01/00 A3045 RMK A01 T00080001  RH  097%=      5-min Rain = 0
KTAT 080555Z 00007KT 01/00 A3044 RMK A01 T00080001  RH  097%=      5-min Rain = 0

Page generated in 0.01 seconds.